Tuesday, February 20, 2018, 9:44 AM GMT
Back to Local

CZBF, Bathurst Airport Aviation Weather Reporting Station

Location: , , Canada Lat: 47.633
Local Time: 9:44 AM GMT ( 9:44 GMT) Lon: -65.75
Time Zone: GMT Elev: 193 ft

Show me the last for .
Show Decoded

2018-02-20 09:00 METAR CZBF 200900Z 34003KT 15SM BKN050 OVC080 M00/M03 A3025 RMK SC6AS2 SLP250 =
2018-02-20 08:00 METAR CZBF 200800Z 00000KT 15SM BKN050 OVC080 M01/M03 A3021 RMK SC7AS1 SLP236 =
2018-02-20 07:00 METAR CZBF 200700Z 26003KT 15SM BKN050 OVC080 M01/M03 A3022 RMK SC7AS1 PRESRR
                 SLP237 =
2018-02-20 06:00 METAR CZBF 200600Z VRB02KT 15SM OVC060 M01/M04 A3021 RMK SC8 SLP234 =
2018-02-20 05:00 METAR CZBF 200500Z 18003KT 15SM OVC070 00/M04 A3019 RMK AS8 PRESFR SLP228 =
2018-02-20 04:00 METAR CZBF 200400Z 21005KT 15SM OVC070 00/M04 A3021 RMK AC8 SLP236 =
2018-02-20 03:00 METAR CZBF 200300Z 18004KT 15SM OVC070 M01/M05 A3020 RMK AC8 SLP231 =
2018-02-20 02:00 METAR CZBF 200200Z 00000KT 15SM BKN070 M03/M06 A3020 RMK AC6 SLP232 =
2018-02-20 01:00 METAR CZBF 200100Z 19005KT 15SM FEW230 M01/M06 A3020 RMK CS2 SLP232 =
2018-02-20 00:00 METAR CZBF 200000Z 17003KT 15SM FEW230 M03/M07 A3021 RMK CS1 SLP236 =
2018-02-19 23:00 METAR CZBF 192300Z 19004KT 15SM FEW050 FEW140 BKN220 00/M07 A3021 RMK SC1AC1CS6
                 SC TR SLP237 =
2018-02-19 22:00 METAR CZBF 192200Z 20007KT 15SM FEW050 BKN220 03/M07 A3023 RMK SC1CS7 SC TR
                 SLP242 =
2018-02-19 21:00 METAR CZBF 192100Z 19008KT 15SM FEW045 FEW150 BKN220 03/M08 A3022 RMK SC1AC1CS5
                 SC TR SLP239 =
2018-02-19 20:00 METAR CZBF 192000Z 19010G17KT 160V230 15SM FEW150 BKN220 03/M09 A3023 RMK AC1CI6
                 SLP244 =
2018-02-19 19:00 METAR CZBF 191900Z 20012G20KT 160V240 15SM FEW120 BKN220 03/M09 A3027 RMK AC1CS6
                 SLP256 =
2018-02-19 18:00 METAR CZBF 191800Z 20016KT 15SM BKN120 BKN220 03/M10 A3031 RMK AC5CS2 PRESFR
                 SLP268 =
2018-02-19 17:00 METAR CZBF 191700Z 17011G20KT 15SM BKN120 BKN220 02/M09 A3034 RMK AC6CI1 PRESFR
                 SLP278 =
2018-02-19 16:00 METAR CZBF 191600Z 17008G16KT 130V220 15SM FEW120 BKN220 01/M08 A3039 RMK AC2CS5
                 SLP297 =
2018-02-19 15:00 METAR CZBF 191500Z 15006KT 15SM FEW120 BKN220 M02/M09 A3043 RMK AC1CS6 SLP312 =
2018-02-19 14:00 METAR CZBF 191400Z 17005KT 15SM FEW120 OVC220 M05/M09 A3046 RMK AC2CS6 SLP322 =
2018-02-19 13:00 METAR CZBF 191300Z VRB02KT 15SM BKN100 M11/M13 A3048 RMK AC7 SLP328 =
2018-02-19 12:00 METAR CZBF 191200Z 20003KT 15SM BKN120 M16/M18 A3047 RMK AC7 SLP325 =
2018-02-19 11:00 METAR CZBF 191100Z 23002KT 15SM BKN120 M16/M17 A3046 RMK AC6 SLP322 =
2018-02-19 10:00 METAR CZBF 191000Z 22004KT 15SM SKC M18/M20 A3045 RMK FROIN SLP317 =

Support USWX by starting your Amazon purchase here.